Time;durP1;ratioP1;P1;durP2;ratioP2;P2;SDS_P1;SDS_P2;PMS_P1;PMS_P2;Temp;Humidity;BMP_temperature;BMP_pressure;BME280_temperature;BME280_humidity;BME280_pressure;Samples;Min_cycle;Max_cycle;Signal;HPM_P1;HPM_P2
2023/11/13 00:02:02;;;;;;;25.10;8.82;;;8.20;99.90;;;;;;4954221;29;20035;-94
2023/11/13 00:04:31;;;;;;;20.17;8.40;;;8.20;99.90;;;;;;4968719;29;20035;-94
2023/11/13 00:06:57;;;;;;;25.58;7.28;;;8.20;99.90;;;;;;4969277;29;20032;-95
2023/11/13 00:09:27;;;;;;;20.92;7.47;;;8.20;99.90;;;;;;4949997;29;20031;-95
2023/11/13 00:11:56;;;;;;;20.03;7.10;;;8.20;99.90;;;;;;4946609;29;20035;-95
2023/11/13 00:14:23;;;;;;;19.77;8.00;;;8.20;99.90;;;;;;4930298;29;20343;-94
2023/11/13 00:16:51;;;;;;;26.80;8.77;;;8.20;99.90;;;;;;4969703;29;20075;-94
2023/11/13 00:19:17;;;;;;;18.42;6.93;;;8.20;99.90;;;;;;4963780;29;20031;-93
2023/11/13 00:21:43;;;;;;;27.75;7.25;;;8.20;99.90;;;;;;4946416;29;20080;-96
2023/11/13 00:24:12;;;;;;;24.60;8.30;;;8.20;99.90;;;;;;4959493;28;20078;-95
2023/11/13 00:26:38;;;;;;;31.25;8.75;;;8.10;99.90;;;;;;4959281;29;20489;-95
2023/11/13 00:29:06;;;;;;;26.27;8.63;;;8.10;99.90;;;;;;4959229;28;20465;-95
2023/11/13 00:31:32;;;;;;;21.10;7.25;;;8.10;99.90;;;;;;4926716;29;20388;-94
2023/11/13 00:34:00;;;;;;;29.70;8.55;;;8.10;99.90;;;;;;4957555;29;20058;-93
2023/11/13 00:36:30;;;;;;;22.25;7.45;;;8.10;99.90;;;;;;4942714;29;20027;-95
2023/11/13 00:38:56;;;;;;;16.25;6.95;;;8.20;99.90;;;;;;4941097;29;20047;-96
2023/11/13 00:41:31;;;;;;;24.42;7.50;;;8.20;99.90;;;;;;4962091;29;20063;-93
2023/11/13 00:43:57;;;;;;;33.38;9.20;;;8.10;99.90;;;;;;4922160;29;20032;-94
2023/11/13 00:46:25;;;;;;;22.42;7.60;;;8.20;99.90;;;;;;4940868;29;20068;-95
2023/11/13 00:48:50;;;;;;;26.40;8.68;;;8.20;99.90;;;;;;4941543;29;20081;-94
2023/11/13 00:51:16;;;;;;;34.58;9.75;;;8.30;99.90;;;;;;4956917;28;20118;-95
2023/11/13 00:53:43;;;;;;;26.73;9.27;;;8.30;99.90;;;;;;4957043;29;20035;-95
2023/11/13 00:56:09;;;;;;;28.30;8.20;;;8.40;99.90;;;;;;4944159;29;20357;-94
2023/11/13 00:58:36;;;;;;;33.35;9.65;;;8.50;99.90;;;;;;4959377;29;20034;-94
2023/11/13 01:01:07;;;;;;;37.55;10.52;;;8.50;99.90;;;;;;4942820;29;20031;-95
2023/11/13 01:03:38;;;;;;;48.78;13.98;;;8.50;99.90;;;;;;4942888;29;20404;-96
2023/11/13 01:06:04;;;;;;;;;;;8.50;99.90;;;;;;4945074;28;20106;-95
2023/11/13 01:08:29;;;;;;;25.83;10.65;;;8.50;99.90;;;;;;4939997;29;19911;-93
2023/11/13 01:10:55;;;;;;;23.20;8.38;;;8.50;99.90;;;;;;4941404;29;20035;-94
2023/11/13 01:13:21;;;;;;;16.85;6.03;;;8.50;99.90;;;;;;4957798;29;20023;-95
2023/11/13 01:15:54;;;;;;;23.30;8.57;;;8.40;99.90;;;;;;4957356;29;20058;-94
2023/11/13 01:18:20;;;;;;;35.45;11.60;;;8.40;99.90;;;;;;4941093;29;20299;-94
2023/11/13 01:20:46;;;;;;;20.17;7.50;;;8.40;99.90;;;;;;4941592;29;20023;-94
2023/11/13 01:23:13;;;;;;;27.60;9.68;;;8.40;99.90;;;;;;4940420;29;20381;-95
2023/11/13 01:25:41;;;;;;;25.20;10.10;;;8.40;99.90;;;;;;4955695;28;20517;-95
2023/11/13 01:28:08;;;;;;;32.75;9.85;;;8.40;99.90;;;;;;4941517;28;20035;-95
2023/11/13 01:30:34;;;;;;;35.78;10.77;;;8.40;99.90;;;;;;4924530;29;20532;-93
2023/11/13 01:33:00;;;;;;;31.83;9.35;;;8.30;99.90;;;;;;4940198;29;20024;-94
2023/11/13 01:35:25;;;;;;;38.65;13.27;;;8.30;99.90;;;;;;4940324;29;20470;-95
2023/11/13 01:37:54;;;;;;;45.80;13.30;;;8.30;99.90;;;;;;4923908;29;20406;-94
2023/11/13 01:40:24;;;;;;;30.60;11.63;;;8.30;99.90;;;;;;4941498;29;20446;-95
2023/11/13 01:42:50;;;;;;;36.90;12.70;;;8.30;99.90;;;;;;4924054;29;20040;-94
2023/11/13 01:45:17;;;;;;;47.55;12.98;;;8.30;99.90;;;;;;4924115;29;20035;-95
2023/11/13 01:47:46;;;;;;;31.27;12.65;;;8.40;99.90;;;;;;4923812;29;20397;-95
2023/11/13 01:50:12;;;;;;;37.60;12.75;;;8.40;99.90;;;;;;4923625;29;20035;-94
2023/11/13 01:52:40;;;;;;;56.53;16.73;;;8.40;99.90;;;;;;4939382;29;20024;-95
2023/11/13 01:55:09;;;;;;;25.95;10.00;;;8.40;99.90;;;;;;4923628;29;20023;-94
2023/11/13 01:57:36;;;;;;;54.80;17.40;;;8.40;99.90;;;;;;4923602;29;20043;-95
2023/11/13 02:00:04;;;;;;;55.67;17.40;;;8.40;99.90;;;;;;4923033;29;20024;-95
2023/11/13 02:02:31;;;;;;;60.88;17.40;;;8.40;99.90;;;;;;4937090;29;20027;-94
2023/11/13 02:04:57;;;;;;;56.33;18.25;;;8.40;99.90;;;;;;4923845;29;20035;-95
2023/11/13 02:07:23;;;;;;;35.55;12.55;;;8.40;99.90;;;;;;4923621;29;20126;-95
2023/11/13 02:09:49;;;;;;;56.17;17.15;;;8.40;99.90;;;;;;4939422;29;20437;-94
2023/11/13 02:12:17;;;;;;;57.50;16.75;;;8.30;99.90;;;;;;4923879;29;20031;-95
2023/11/13 02:14:43;;;;;;;52.85;16.05;;;8.40;99.90;;;;;;4926085;29;20023;-94
2023/11/13 02:17:10;;;;;;;55.80;18.63;;;8.40;99.90;;;;;;4939788;29;20063;-94
2023/11/13 02:19:37;;;;;;;67.15;19.73;;;8.30;99.90;;;;;;4924993;29;20047;-94
2023/11/13 02:22:04;;;;;;;41.97;15.70;;;8.30;99.90;;;;;;4939519;29;20039;-94
2023/11/13 02:24:30;;;;;;;48.10;19.08;;;8.30;99.90;;;;;;4923396;29;20091;-93
2023/11/13 02:26:59;;;;;;;51.38;18.83;;;8.30;99.90;;;;;;4908499;29;20040;-95
2023/11/13 02:29:25;;;;;;;49.13;18.23;;;8.30;99.90;;;;;;4934930;29;20040;-94
2023/11/13 02:31:56;;;;;;;47.63;17.35;;;8.30;99.90;;;;;;4958327;28;20400;-94
2023/11/13 02:34:22;;;;;;;;;;;8.20;99.90;;;;;;4958616;29;20019;-93
2023/11/13 02:36:51;;;;;;;52.20;18.23;;;8.30;99.90;;;;;;4959416;28;19930;-94
2023/11/13 02:39:21;;;;;;;50.80;16.17;;;8.20;99.90;;;;;;4957997;29;20035;-93
2023/11/13 02:41:49;;;;;;;46.95;17.20;;;8.20;99.90;;;;;;4959131;28;20023;-95
2023/11/13 02:44:17;;;;;;;58.22;19.65;;;8.20;99.90;;;;;;4959654;29;20015;-94
2023/11/13 02:46:47;;;;;;;51.08;18.73;;;8.30;99.90;;;;;;4942613;29;20035;-94
2023/11/13 02:49:14;;;;;;;67.23;22.57;;;8.30;99.90;;;;;;4943361;29;20379;-93
2023/11/13 02:51:43;;;;;;;52.70;18.92;;;8.30;99.90;;;;;;4943325;29;20314;-94
2023/11/13 02:54:09;;;;;;;58.05;18.25;;;8.30;99.90;;;;;;4959388;29;20034;-95
2023/11/13 02:56:44;;;;;;;52.97;17.90;;;8.30;99.90;;;;;;4943499;29;20039;-95
2023/11/13 02:59:15;;;;;;;57.88;17.48;;;8.30;99.90;;;;;;4928617;29;20035;-94
2023/11/13 03:01:46;;;;;;;48.97;17.50;;;8.30;99.90;;;;;;4960569;29;20031;-95
2023/11/13 03:04:21;;;;;;;48.95;16.58;;;8.20;99.90;;;;;;4960177;29;20047;-93
2023/11/13 03:06:50;;;;;;;47.50;14.88;;;8.30;99.90;;;;;;4959734;29;20043;-95
2023/11/13 03:09:21;;;;;;;51.42;15.73;;;8.30;99.90;;;;;;4943302;29;20035;-94
2023/11/13 03:12:13;;;;;;;43.80;16.02;;;8.30;99.90;;;;;;4963398;29;20019;-94
2023/11/13 03:14:41;;;;;;;43.10;15.77;;;8.30;99.90;;;;;;4956212;29;20054;-93
2023/11/13 03:17:08;;;;;;;44.95;13.45;;;8.30;99.90;;;;;;4972973;28;20063;-94
2023/11/13 03:19:36;;;;;;;54.60;14.60;;;8.30;99.90;;;;;;4972837;29;20082;-95
2023/11/13 03:22:02;;;;;;;49.17;14.70;;;8.30;99.90;;;;;;4958022;29;20027;-93
2023/11/13 03:24:29;;;;;;;47.15;15.00;;;8.40;99.90;;;;;;4955878;29;20019;-94
2023/11/13 03:26:59;;;;;;;39.13;14.10;;;8.30;99.90;;;;;;4969765;29;20540;-94
2023/11/13 03:29:27;;;;;;;48.95;15.88;;;8.40;99.90;;;;;;4969151;28;20046;-94
2023/11/13 03:31:54;;;;;;;49.78;16.95;;;8.40;99.90;;;;;;4967373;28;20054;-95
2023/11/13 03:34:21;;;;;;;51.10;16.23;;;8.40;99.90;;;;;;4962694;29;20035;-95
2023/11/13 03:36:48;;;;;;;50.78;16.83;;;8.40;99.90;;;;;;4950171;29;20027;-96
2023/11/13 03:39:15;;;;;;;44.35;13.73;;;8.40;99.90;;;;;;4928962;29;20039;-94
2023/11/13 03:41:42;;;;;;;44.05;16.58;;;8.40;99.90;;;;;;4952495;29;20023;-94
2023/11/13 03:44:09;;;;;;;47.10;14.43;;;8.40;99.90;;;;;;4959123;29;20019;-94
2023/11/13 03:46:34;;;;;;;44.38;14.70;;;8.40;99.90;;;;;;4956513;29;20045;-93
2023/11/13 03:49:00;;;;;;;40.28;13.77;;;8.40;99.90;;;;;;4969005;28;20031;-94
2023/11/13 03:51:26;;;;;;;50.63;14.38;;;8.40;99.90;;;;;;4968894;28;20094;-94
2023/11/13 03:53:52;;;;;;;44.88;15.00;;;8.50;99.90;;;;;;4968583;29;20141;-95
2023/11/13 03:56:23;;;;;;;49.42;14.50;;;8.50;99.90;;;;;;4953680;29;20023;-95
2023/11/13 03:58:49;;;;;;;43.28;13.55;;;8.50;99.90;;;;;;4967653;29;20031;-94
2023/11/13 04:01:16;;;;;;;36.85;13.02;;;8.40;99.90;;;;;;4954010;29;20039;-93
2023/11/13 04:03:42;;;;;;;52.75;14.90;;;8.50;99.90;;;;;;4968778;29;20062;-94
2023/11/13 04:06:08;;;;;;;40.63;14.35;;;8.50;99.90;;;;;;4971377;29;20039;-94
2023/11/13 04:08:34;;;;;;;36.20;13.95;;;8.50;99.90;;;;;;4954327;29;20015;-94
2023/11/13 04:11:03;;;;;;;38.83;12.52;;;8.50;99.90;;;;;;4951533;29;20054;-94
2023/11/13 04:13:30;;;;;;;42.38;12.65;;;8.50;99.90;;;;;;4966784;29;20027;-94
2023/11/13 04:16:00;;;;;;;50.95;13.85;;;8.50;99.90;;;;;;4952761;29;20023;-95
2023/11/13 04:18:33;;;;;;;32.50;12.30;;;8.50;99.90;;;;;;4953513;29;20023;-94
2023/11/13 04:21:04;;;;;;;29.10;11.77;;;8.50;99.90;;;;;;4950507;29;20027;-95
2023/11/13 04:23:30;;;;;;;26.98;8.63;;;8.60;99.90;;;;;;4932127;29;20047;-94
2023/11/13 04:26:02;;;;;;;38.08;9.18;;;8.50;99.90;;;;;;4946193;29;20043;-95
2023/11/13 04:28:32;;;;;;;33.85;8.43;;;8.50;99.90;;;;;;4948983;28;20396;-95
2023/11/13 04:30:58;;;;;;;29.40;7.22;;;8.50;99.90;;;;;;4950688;29;20027;-94
2023/11/13 04:33:28;;;;;;;27.63;6.60;;;8.60;99.90;;;;;;4946965;29;20039;-94
2023/11/13 04:36:01;;;;;;;37.30;7.53;;;8.60;99.90;;;;;;4969303;29;20016;-94
2023/11/13 04:38:29;;;;;;;26.45;5.10;;;8.60;99.90;;;;;;4967629;29;20477;-93
2023/11/13 04:40:58;;;;;;;35.53;5.90;;;8.60;99.90;;;;;;4972628;29;20051;-95
2023/11/13 04:43:32;;;;;;;34.97;5.80;;;8.60;99.90;;;;;;4973878;29;20031;-95
2023/11/13 04:46:00;;;;;;;36.33;5.18;;;8.60;99.90;;;;;;4948367;29;20027;-95
2023/11/13 04:48:32;;;;;;;29.92;5.32;;;8.70;99.90;;;;;;4945890;29;20046;-94
2023/11/13 04:51:01;;;;;;;32.30;4.93;;;8.60;99.90;;;;;;4947501;28;20576;-96
2023/11/13 04:53:27;;;;;;;26.92;4.85;;;8.60;99.90;;;;;;4945820;29;20501;-94
2023/11/13 04:55:54;;;;;;;29.15;4.43;;;8.60;99.90;;;;;;4945535;29;20481;-94
2023/11/13 04:58:23;;;;;;;32.22;4.63;;;8.60;99.90;;;;;;4945704;29;20031;-94
2023/11/13 05:00:52;;;;;;;27.13;4.13;;;8.60;99.90;;;;;;4956986;28;20043;-94
2023/11/13 05:03:21;;;;;;;27.33;4.28;;;8.60;99.90;;;;;;4926505;29;20122;-93
2023/11/13 05:05:53;;;;;;;36.83;5.03;;;8.60;99.90;;;;;;4974158;28;20504;-94
2023/11/13 05:08:23;;;;;;;29.40;5.60;;;8.60;99.90;;;;;;4938421;29;20140;-93
2023/11/13 05:10:52;;;;;;;31.13;4.07;;;8.50;99.90;;;;;;4955411;29;20127;-94
2023/11/13 05:13:21;;;;;;;31.90;4.63;;;8.50;99.90;;;;;;4956964;29;20075;-94
2023/11/13 05:15:50;;;;;;;23.53;3.67;;;8.50;99.90;;;;;;4960417;28;20023;-94
2023/11/13 05:18:21;;;;;;;24.45;4.35;;;8.50;99.90;;;;;;4958473;29;20035;-95
2023/11/13 05:20:53;;;;;;;32.33;5.00;;;8.50;99.90;;;;;;4942162;29;20066;-95
2023/11/13 05:23:26;;;;;;;23.27;3.13;;;8.50;99.90;;;;;;4946016;29;20091;-95
2023/11/13 05:25:53;;;;;;;22.90;3.88;;;8.50;99.90;;;;;;4967085;28;20030;-95
2023/11/13 05:28:22;;;;;;;27.17;4.18;;;8.50;99.90;;;;;;4969021;29;20135;-94
2023/11/13 05:30:51;;;;;;;26.85;3.95;;;8.50;99.90;;;;;;4929771;29;20036;-95
2023/11/13 05:33:20;;;;;;;16.35;3.22;;;8.50;99.90;;;;;;4938637;29;20095;-95
2023/11/13 05:35:46;;;;;;;20.58;2.95;;;8.50;99.90;;;;;;4941223;29;20032;-95
2023/11/13 05:38:14;;;;;;;22.00;3.65;;;8.40;99.90;;;;;;4922629;29;20433;-96
2023/11/13 05:40:43;;;;;;;12.23;2.45;;;8.40;99.90;;;;;;4922244;29;20063;-95
2023/11/13 05:43:09;;;;;;;14.80;2.50;;;8.40;99.90;;;;;;4908117;29;20035;-96
2023/11/13 05:45:36;;;;;;;9.95;2.05;;;8.40;99.90;;;;;;4914493;29;20102;-95
2023/11/13 05:48:09;;;;;;;18.85;3.22;;;8.30;99.90;;;;;;4909233;29;20024;-94
2023/11/13 05:50:53;;;;;;;16.48;2.90;;;8.30;99.90;;;;;;4943032;29;20050;-94
2023/11/13 05:53:27;;;;;;;17.60;3.97;;;8.30;99.90;;;;;;4926988;29;20032;-95
2023/11/13 05:55:59;;;;;;;15.10;2.83;;;8.30;99.90;;;;;;4938902;29;20024;-93
2023/11/13 05:58:34;;;;;;;;;;;8.30;99.90;;;;;;4937091;29;20075;-94
2023/11/13 06:01:00;;;;;;;10.77;2.30;;;8.20;99.90;;;;;;4937769;29;19906;-94
2023/11/13 06:03:27;;;;;;;14.85;3.35;;;8.20;99.90;;;;;;4921292;29;20047;-95
2023/11/13 06:05:53;;;;;;;14.98;4.32;;;8.20;99.90;;;;;;4936975;29;20036;-94
2023/11/13 06:08:20;;;;;;;10.70;3.08;;;8.20;99.90;;;;;;4938270;29;20032;-95
2023/11/13 06:10:53;;;;;;;8.73;3.20;;;8.20;99.90;;;;;;4907491;29;20122;-94
2023/11/13 06:13:22;;;;;;;11.52;2.90;;;8.10;99.90;;;;;;4925248;29;20043;-96
2023/11/13 06:15:48;;;;;;;11.70;2.60;;;8.10;99.90;;;;;;4941771;29;20481;-96
2023/11/13 06:18:13;;;;;;;11.65;2.50;;;8.10;99.90;;;;;;4925899;29;20172;-95
2023/11/13 06:20:39;;;;;;;9.93;2.00;;;8.10;99.90;;;;;;4925978;29;20036;-94
2023/11/13 06:23:06;;;;;;;14.82;2.13;;;8.10;99.90;;;;;;4943579;29;20043;-95
2023/11/13 06:25:32;;;;;;;12.23;1.90;;;8.10;99.90;;;;;;4944980;29;20028;-95
2023/11/13 06:27:58;;;;;;;8.15;1.55;;;8.10;99.90;;;;;;4914289;29;20512;-93
2023/11/13 06:30:24;;;;;;;5.18;1.58;;;8.10;99.90;;;;;;4948994;29;20035;-93
2023/11/13 06:32:50;;;;;;;7.05;1.33;;;8.00;99.90;;;;;;4963940;29;20174;-96
2023/11/13 06:35:16;;;;;;;7.35;1.35;;;8.00;99.90;;;;;;4944243;29;20031;-95
2023/11/13 06:37:44;;;;;;;7.75;1.55;;;8.00;99.90;;;;;;4960779;29;20066;-95
2023/11/13 06:40:10;;;;;;;13.52;1.42;;;8.10;99.90;;;;;;4945475;29;20110;-95
2023/11/13 06:42:36;;;;;;;7.05;1.23;;;8.10;99.90;;;;;;4959551;29;20027;-94
2023/11/13 06:45:02;;;;;;;5.03;0.90;;;8.10;99.90;;;;;;4959601;29;20031;-95
2023/11/13 06:47:28;;;;;;;5.40;1.10;;;8.10;99.90;;;;;;4961329;29;20039;-95
2023/11/13 06:49:54;;;;;;;4.32;1.00;;;8.10;99.90;;;;;;4966642;29;20106;-94
2023/11/13 06:52:21;;;;;;;8.27;1.00;;;8.10;99.90;;;;;;4962771;28;20038;-93
2023/11/13 06:54:47;;;;;;;2.67;0.93;;;8.10;99.90;;;;;;4961125;29;20027;-94
2023/11/13 06:57:13;;;;;;;2.88;0.80;;;8.10;99.90;;;;;;4971988;29;20024;-93
2023/11/13 06:59:40;;;;;;;4.43;0.82;;;8.10;99.90;;;;;;4972243;29;20027;-94
2023/11/13 07:02:06;;;;;;;2.92;0.50;;;8.10;99.90;;;;;;4967291;29;20118;-93
2023/11/13 07:04:32;;;;;;;4.60;0.70;;;8.10;99.90;;;;;;4966070;28;20053;-94
2023/11/13 07:06:59;;;;;;;1.95;0.60;;;8.10;99.90;;;;;;4949823;29;20513;-94
2023/11/13 07:09:25;;;;;;;5.72;0.95;;;8.10;99.90;;;;;;4951360;29;20023;-94
2023/11/13 07:11:50;;;;;;;2.92;0.80;;;8.10;99.90;;;;;;4952259;29;20084;-95
2023/11/13 07:14:16;;;;;;;8.00;1.05;;;8.10;99.90;;;;;;4946635;29;20090;-96
2023/11/13 07:16:42;;;;;;;3.53;1.00;;;8.20;99.90;;;;;;4949691;29;20091;-96
2023/11/13 07:19:09;;;;;;;3.95;1.10;;;8.20;99.90;;;;;;4955301;29;20027;-93
2023/11/13 07:21:35;;;;;;;3.85;0.85;;;8.20;99.90;;;;;;4972226;28;20027;-93
2023/11/13 07:24:05;;;;;;;3.20;0.90;;;8.20;99.90;;;;;;4956693;29;20031;-93
2023/11/13 07:26:32;;;;;;;0.93;0.40;;;8.20;99.90;;;;;;4971779;28;20039;-95
2023/11/13 07:28:58;;;;;;;2.85;0.60;;;8.30;99.90;;;;;;4971662;28;20035;-94
2023/11/13 07:31:24;;;;;;;2.25;0.98;;;8.30;99.90;;;;;;4958580;29;20019;-94
2023/11/13 07:33:49;;;;;;;3.55;0.63;;;8.30;99.90;;;;;;4958474;29;20027;-94
2023/11/13 07:36:16;;;;;;;3.83;0.75;;;8.30;99.90;;;;;;4955516;29;20015;-94
2023/11/13 07:38:45;;;;;;;1.80;0.60;;;8.30;99.90;;;;;;4974049;29;20059;-93
2023/11/13 07:41:11;;;;;;;0.95;0.63;;;8.30;99.90;;;;;;4947233;29;20074;-93
2023/11/13 07:43:41;;;;;;;2.95;1.00;;;8.40;99.90;;;;;;4946975;29;20027;-93
2023/11/13 07:46:08;;;;;;;2.20;0.60;;;8.40;99.90;;;;;;4947170;28;20062;-93
2023/11/13 07:48:35;;;;;;;2.17;0.73;;;8.40;99.90;;;;;;4969927;29;20031;-95
2023/11/13 07:51:02;;;;;;;2.58;0.60;;;8.40;99.90;;;;;;4954270;29;20034;-96
2023/11/13 07:53:28;;;;;;;1.40;0.60;;;8.40;99.90;;;;;;4948847;29;20569;-94
2023/11/13 07:55:54;;;;;;;2.03;0.65;;;8.40;99.90;;;;;;4951581;29;20038;-95
2023/11/13 07:58:20;;;;;;;1.00;0.50;;;8.50;99.90;;;;;;4957355;29;20016;-96
2023/11/13 08:00:46;;;;;;;0.60;0.60;;;8.50;99.90;;;;;;4978108;29;20050;-95
2023/11/13 08:03:25;;;;;;;1.02;0.63;;;8.50;99.90;;;;;;4961903;28;20015;-95
2023/11/13 08:05:51;;;;;;;2.63;0.50;;;8.50;99.90;;;;;;4943347;29;20106;-96
2023/11/13 08:08:20;;;;;;;0.95;0.57;;;8.60;99.90;;;;;;4955675;29;20035;-94
2023/11/13 08:10:46;;;;;;;1.65;0.70;;;8.60;99.90;;;;;;4956079;29;20019;-95
2023/11/13 08:13:19;;;;;;;2.55;0.80;;;8.60;99.90;;;;;;4958309;29;20023;-94
2023/11/13 08:15:45;;;;;;;2.55;0.70;;;8.60;99.90;;;;;;4944431;29;20043;-95
2023/11/13 08:18:15;;;;;;;0.90;0.60;;;8.70;99.90;;;;;;4959539;29;20058;-94
2023/11/13 08:20:44;;;;;;;0.70;0.63;;;8.70;99.90;;;;;;4960747;29;20018;-93
2023/11/13 08:23:10;;;;;;;0.82;0.65;;;8.80;99.90;;;;;;4976799;28;20027;-94
2023/11/13 08:25:39;;;;;;;0.98;0.28;;;8.80;99.90;;;;;;4959780;29;20039;-94
2023/11/13 08:28:05;;;;;;;1.13;0.63;;;8.90;99.90;;;;;;4955532;29;20035;-93
2023/11/13 08:30:45;;;;;;;3.13;1.20;;;9.10;99.90;;;;;;4957564;29;20022;-95
2023/11/13 08:33:45;;;;;;;0.60;0.45;;;9.20;99.90;;;;;;4940037;29;20035;-93
2023/11/13 08:36:38;;;;;;;1.83;0.93;;;9.30;99.90;;;;;;4967812;28;20031;-94
2023/11/13 08:39:07;;;;;;;6.32;2.35;;;9.50;99.90;;;;;;4951237;29;20050;-93
2023/11/13 08:41:35;;;;;;;3.08;0.82;;;9.60;99.90;;;;;;4969356;29;20049;-93
2023/11/13 08:44:13;;;;;;;4.70;0.80;;;9.70;99.90;;;;;;4955940;29;20133;-94
2023/11/13 08:46:40;;;;;;;4.90;0.70;;;9.80;99.90;;;;;;4969905;29;20035;-94
2023/11/13 08:49:07;;;;;;;8.55;1.40;;;9.90;99.90;;;;;;4958054;29;20015;-93
2023/11/13 08:51:34;;;;;;;15.77;1.85;;;10.00;99.90;;;;;;4975320;28;20027;-96
2023/11/13 08:53:59;;;;;;;11.75;1.75;;;10.10;99.90;;;;;;4966532;28;20034;-95
2023/11/13 08:56:26;;;;;;;15.30;2.00;;;10.20;99.90;;;;;;4986240;28;20118;-95
2023/11/13 08:58:58;;;;;;;8.20;1.67;;;10.30;99.90;;;;;;4973578;28;20027;-95
2023/11/13 09:01:31;;;;;;;13.38;2.13;;;10.30;99.90;;;;;;4964780;29;20373;-95
2023/11/13 09:04:07;;;;;;;10.63;2.15;;;10.40;99.90;;;;;;4954149;29;20042;-96
2023/11/13 09:07:09;;;;;;;13.95;2.00;;;10.50;99.90;;;;;;4931853;29;20035;-94
2023/11/13 09:09:42;;;;;;;11.52;1.80;;;10.50;99.90;;;;;;4961237;29;20094;-95
2023/11/13 09:12:35;;;;;;;10.48;1.33;;;10.50;99.90;;;;;;4961063;29;20031;-94
2023/11/13 09:15:20;;;;;;;10.95;1.48;;;10.50;99.90;;;;;;4939505;29;20107;-93
2023/11/13 09:18:15;;;;;;;12.60;1.75;;;10.50;99.90;;;;;;4953046;29;20047;-95
2023/11/13 09:20:59;;;;;;;9.35;2.17;;;10.50;99.90;;;;;;4947159;29;20074;-93
2023/11/13 09:23:26;;;;;;;18.02;2.05;;;10.50;99.90;;;;;;4959705;29;20039;-94
2023/11/13 09:25:52;;;;;;;14.38;2.30;;;10.60;99.90;;;;;;4944181;29;20031;-93
2023/11/13 09:28:21;;;;;;;21.10;3.08;;;10.60;99.90;;;;;;4947886;29;20043;-94
2023/11/13 09:30:49;;;;;;;16.35;2.40;;;10.70;99.90;;;;;;4965794;29;20043;-94
2023/11/13 09:33:17;;;;;;;12.75;1.65;;;10.80;99.90;;;;;;4968527;29;20049;-93
2023/11/13 09:35:42;;;;;;;15.15;3.05;;;11.00;99.90;;;;;;4971330;29;20047;-95
2023/11/13 09:38:09;;;;;;;12.48;2.35;;;11.20;99.90;;;;;;4971551;29;20034;-95
2023/11/13 09:40:35;;;;;;;15.50;2.20;;;11.30;99.90;;;;;;4971624;29;20023;-95
2023/11/13 09:43:14;;;;;;;11.63;1.83;;;11.40;99.90;;;;;;4971823;29;20027;-95
2023/11/13 09:45:51;;;;;;;16.00;3.40;;;11.50;99.90;;;;;;4974312;29;20031;-95
2023/11/13 09:48:29;;;;;;;11.30;1.77;;;11.70;99.90;;;;;;4959886;29;20033;-94
2023/11/13 09:50:59;;;;;;;15.70;2.38;;;11.80;99.90;;;;;;4961272;29;20030;-94
2023/11/13 09:53:26;;;;;;;13.25;2.30;;;11.90;99.90;;;;;;4961651;29;20019;-96
2023/11/13 09:55:53;;;;;;;11.10;2.25;;;12.10;99.90;;;;;;4977954;29;20106;-95
2023/11/13 09:58:20;;;;;;;11.20;3.80;;;12.20;99.90;;;;;;4960892;29;20034;-94
2023/11/13 10:00:46;;;;;;;8.27;1.15;;;12.20;99.90;;;;;;4977814;29;20031;-96
2023/11/13 10:03:15;;;;;;;19.17;2.63;;;12.30;99.90;;;;;;4961995;29;20059;-95
2023/11/13 10:05:43;;;;;;;11.57;2.22;;;12.30;99.90;;;;;;4960497;29;20047;-93
2023/11/13 10:08:09;;;;;;;13.73;2.05;;;12.30;99.90;;;;;;4963726;28;20035;-94
2023/11/13 10:10:40;;;;;;;10.80;2.08;;;12.40;99.90;;;;;;4980161;29;20043;-94
2023/11/13 10:13:11;;;;;;;17.15;1.88;;;12.50;99.90;;;;;;4963034;29;20043;-95
2023/11/13 10:15:41;;;;;;;9.68;1.38;;;12.60;99.90;;;;;;4977528;29;20074;-93
2023/11/13 10:18:14;;;;;;;23.58;2.83;;;12.80;99.90;;;;;;4964024;29;20055;-96
2023/11/13 10:20:47;;;;;;;16.27;2.05;;;12.90;99.90;;;;;;4962973;28;20130;-95
2023/11/13 10:23:14;;;;;;;10.52;1.90;;;13.00;99.90;;;;;;4972078;29;20043;-95
2023/11/13 10:25:59;;;;;;;3.67;1.30;;;13.10;99.90;;;;;;4970457;29;20050;-95
2023/11/13 10:28:40;;;;;;;13.45;1.50;;;13.30;99.90;;;;;;4955430;29;20174;-94
2023/11/13 10:31:17;;;;;;;13.18;2.20;;;13.20;99.90;;;;;;4967018;29;20038;-94
2023/11/13 10:33:59;;;;;;;18.05;3.05;;;13.20;99.90;;;;;;4968980;29;20095;-94
2023/11/13 10:36:25;;;;;;;7.88;1.63;;;13.20;99.90;;;;;;4974804;29;20066;-95
2023/11/13 10:38:58;;;;;;;14.60;2.10;;;13.20;99.90;;;;;;4974937;28;20027;-95
2023/11/13 10:41:30;;;;;;;13.25;1.73;;;13.20;99.90;;;;;;4939032;29;20063;-95
2023/11/13 10:43:56;;;;;;;12.00;2.25;;;13.10;99.90;;;;;;4950621;29;20027;-96
2023/11/13 10:46:33;;;;;;;6.38;1.40;;;13.00;99.90;;;;;;4950606;29;20027;-94
2023/11/13 10:49:01;;;;;;;12.45;3.33;;;12.80;99.90;;;;;;4946720;29;20030;-96
2023/11/13 10:51:29;;;;;;;11.15;1.90;;;12.60;99.90;;;;;;4946449;28;20046;-95
2023/11/13 10:54:09;;;;;;;12.10;1.80;;;12.60;99.90;;;;;;4963211;29;20039;-93
2023/11/13 10:56:37;;;;;;;17.73;1.75;;;12.80;99.90;;;;;;4946263;29;20036;-93
2023/11/13 10:59:10;;;;;;;4.70;1.30;;;13.00;99.90;;;;;;4956865;28;20032;-93
2023/11/13 11:01:43;;;;;;;7.75;1.13;;;13.20;99.90;;;;;;4934125;29;20031;-94
2023/11/13 11:04:16;;;;;;;5.68;1.60;;;13.40;99.90;;;;;;4949526;29;20031;-96
2023/11/13 11:06:50;;;;;;;5.97;1.83;;;13.60;99.90;;;;;;4942611;29;20144;-95
2023/11/13 11:09:17;;;;;;;9.10;1.45;;;13.70;99.90;;;;;;4965081;29;20030;-95
2023/11/13 11:11:47;;;;;;;3.95;1.23;;;13.80;99.90;;;;;;4953232;29;20027;-93
2023/11/13 11:14:45;;;;;;;7.55;1.63;;;13.70;99.90;;;;;;4964101;28;20034;-95
2023/11/13 11:17:23;;;;;;;7.15;1.48;;;13.70;99.90;;;;;;4952287;29;20028;-95
2023/11/13 11:20:02;;;;;;;6.97;1.30;;;13.70;99.90;;;;;;4935689;29;20120;-95
2023/11/13 11:22:49;;;;;;;12.43;1.73;;;13.80;99.90;;;;;;4964577;29;20037;-94
2023/11/13 11:25:47;;;;;;;8.00;1.25;;;13.90;99.90;;;;;;4961101;29;20481;-95
2023/11/13 11:28:54;;;;;;;9.43;2.13;;;13.90;99.90;;;;;;4970615;28;20035;-95
2023/11/13 11:31:38;;;;;;;8.52;1.52;;;14.10;99.90;;;;;;4944126;29;20036;-94
2023/11/13 11:34:07;;;;;;;8.82;1.67;;;14.20;99.10;;;;;;4939330;29;20056;-93
2023/11/13 11:36:58;;;;;;;7.15;1.23;;;14.20;99.20;;;;;;4960726;28;20472;-93
2023/11/13 11:39:25;;;;;;;8.35;1.55;;;14.20;99.00;;;;;;4958704;28;20378;-95
2023/11/13 11:41:52;;;;;;;10.25;2.03;;;13.90;98.40;;;;;;4955065;29;20030;-94
2023/11/13 11:44:24;;;;;;;11.07;1.92;;;13.60;98.70;;;;;;4958077;29;20031;-94
2023/11/13 11:46:51;;;;;;;12.90;2.08;;;13.20;99.00;;;;;;4956957;29;20039;-93
2023/11/13 11:49:28;;;;;;;12.00;1.60;;;12.90;99.90;;;;;;4942016;29;20023;-94
2023/11/13 11:52:05;;;;;;;9.80;1.75;;;12.80;99.90;;;;;;4942437;29;20027;-94
2023/11/13 11:54:34;;;;;;;15.32;2.58;;;12.50;99.90;;;;;;4948525;29;20031;-94
2023/11/13 11:57:07;;;;;;;12.80;1.70;;;12.30;99.90;;;;;;4967637;29;20055;-94
2023/11/13 11:59:35;;;;;;;11.68;2.22;;;12.20;99.90;;;;;;4972776;29;20013;-94
2023/11/13 12:02:13;;;;;;;16.65;2.42;;;12.40;99.90;;;;;;4962917;28;20047;-94
2023/11/13 12:04:40;;;;;;;5.70;1.17;;;12.70;99.90;;;;;;4960109;28;20050;-96
2023/11/13 12:07:09;;;;;;;11.20;1.52;;;13.20;99.90;;;;;;4958142;28;20070;-94
2023/11/13 12:09:42;;;;;;;14.93;2.05;;;13.60;99.90;;;;;;4948928;28;20023;-94
2023/11/13 12:12:08;;;;;;;10.27;2.38;;;13.90;99.90;;;;;;4968227;29;20051;-94
2023/11/13 12:14:34;;;;;;;10.23;2.22;;;14.00;98.80;;;;;;4962132;29;20055;-95
2023/11/13 12:17:00;;;;;;;13.07;1.77;;;14.00;98.00;;;;;;4964777;29;20015;-94
2023/11/13 12:19:25;;;;;;;10.60;1.80;;;14.00;98.10;;;;;;4943091;29;20034;-94
2023/11/13 12:21:56;;;;;;;9.45;1.52;;;13.90;98.20;;;;;;4944123;29;20043;-93
2023/11/13 12:24:22;;;;;;;14.90;2.28;;;13.90;98.10;;;;;;4959219;29;20027;-95
2023/11/13 12:26:49;;;;;;;13.98;2.72;;;13.80;97.40;;;;;;4944877;29;20039;-94
2023/11/13 12:29:22;;;;;;;9.50;1.85;;;13.50;97.60;;;;;;4946751;29;20140;-94
2023/11/13 12:31:52;;;;;;;13.15;1.88;;;13.30;97.80;;;;;;4957158;29;20050;-92
2023/11/13 12:34:18;;;;;;;11.10;2.50;;;13.10;98.40;;;;;;4945170;29;20024;-93
2023/11/13 12:36:48;;;;;;;11.57;2.20;;;12.80;99.00;;;;;;4940538;29;20023;-94
2023/11/13 12:39:19;;;;;;;7.70;1.40;;;12.70;99.80;;;;;;4961452;29;20058;-94
2023/11/13 12:41:46;;;;;;;11.68;2.17;;;12.60;99.90;;;;;;4956971;29;20023;-93
2023/11/13 12:44:15;;;;;;;9.38;1.85;;;12.40;99.90;;;;;;4939100;29;20043;-94
2023/11/13 12:46:48;;;;;;;12.25;2.45;;;12.40;99.90;;;;;;4948277;29;20450;-93
2023/11/13 12:49:17;;;;;;;8.45;1.45;;;12.30;99.90;;;;;;4942108;29;20110;-94
2023/11/13 12:51:47;;;;;;;8.68;1.48;;;12.30;99.90;;;;;;4954136;29;20040;-94
2023/11/13 12:54:14;;;;;;;7.35;1.15;;;12.20;99.90;;;;;;4934572;29;20036;-91
2023/11/13 12:56:46;;;;;;;7.50;1.85;;;12.20;99.90;;;;;;4953518;29;20042;-92
2023/11/13 12:59:16;;;;;;;8.60;1.63;;;12.10;99.90;;;;;;4949491;29;20032;-93